createdAt,value
2018-01-27T00:00:52.242Z,19.07
2018-01-27T00:03:26.242Z,19.70
2018-01-27T00:05:59.219Z,20.83
2018-01-27T00:08:32.388Z,17.87
2018-01-27T00:11:05.409Z,23.13
2018-01-27T00:13:39.538Z,16.57
2018-01-27T00:16:12.783Z,18.50
2018-01-27T00:18:45.166Z,20.23
2018-01-27T00:21:18.245Z,18.07
2018-01-27T00:23:51.861Z,15.17
2018-01-27T00:26:25.874Z,17.77
2018-01-27T00:28:58.541Z,15.10
2018-01-27T00:31:31.368Z,13.90
2018-01-27T00:34:03.906Z,16.13
2018-01-27T00:36:36.806Z,16.83
2018-01-27T00:39:10.157Z,19.90
2018-01-27T00:41:43.997Z,21.20
2018-01-27T00:44:16.464Z,13.70
2018-01-27T00:46:50.628Z,12.57
2018-01-27T00:49:23.137Z,15.87
2018-01-27T00:51:55.688Z,18.93
2018-01-27T00:54:28.924Z,13.73
2018-01-27T00:57:03.135Z,11.63
2018-01-27T00:59:35.684Z,14.90
2018-01-27T01:02:08.112Z,17.50
2018-01-27T01:04:41.446Z,13.57
2018-01-27T01:07:14.812Z,16.10
2018-01-27T01:09:49.073Z,14.63
2018-01-27T01:12:22.448Z,14.70
2018-01-27T01:14:55.792Z,14.20
2018-01-27T01:17:28.204Z,13.97
2018-01-27T01:20:01.518Z,13.33
2018-01-27T01:22:34.305Z,14.37
2018-01-27T01:25:06.994Z,13.90
2018-01-27T01:27:39.700Z,11.50
2018-01-27T01:30:13.156Z,17.67
2018-01-27T01:32:46.875Z,16.63
2018-01-27T01:35:19.768Z,14.17
2018-01-27T01:37:52.807Z,12.57
2018-01-27T01:40:26.023Z,19.23
2018-01-27T01:43:04.696Z,17.83
2018-01-27T01:45:38.418Z,12.50
2018-01-27T01:48:11.688Z,14.73
2018-01-27T01:50:44.107Z,14.80
2018-01-27T01:53:16.999Z,17.90
2018-01-27T01:55:50.899Z,17.57
2018-01-27T01:58:24.482Z,16.27
2018-01-27T02:00:57.708Z,13.70
2018-01-27T02:03:30.490Z,11.10
2018-01-27T02:06:04.244Z,17.93
2018-01-27T02:08:37.232Z,19.73
2018-01-27T02:11:09.644Z,15.33
2018-01-27T02:13:43.095Z,13.03
2018-01-27T02:16:16.441Z,12.93
2018-01-27T02:18:49.812Z,16.13
2018-01-27T02:21:23.124Z,15.10
2018-01-27T02:23:55.555Z,14.20
2018-01-27T02:26:28.024Z,13.30
2018-01-27T02:29:00.555Z,10.63
2018-01-27T02:31:33.204Z,17.37
2018-01-27T02:34:05.852Z,9.93
2018-01-27T02:36:38.788Z,12.30
2018-01-27T02:39:11.331Z,13.10
2018-01-27T02:41:44.216Z,11.30
2018-01-27T02:44:16.953Z,13.50
2018-01-27T02:46:50.463Z,13.70
2018-01-27T02:49:23.370Z,10.03
2018-01-27T02:51:56.652Z,9.17
2018-01-27T02:54:29.946Z,13.50
2018-01-27T02:57:03.189Z,10.63
2018-01-27T02:59:36.192Z,13.33
2018-01-27T03:02:10.241Z,10.93
2018-01-27T03:04:43.090Z,10.50
2018-01-27T03:07:16.334Z,12.03
2018-01-27T03:09:50.465Z,10.93
2018-01-27T03:12:22.966Z,10.63
2018-01-27T03:14:57.011Z,11.00
2018-01-27T03:17:29.834Z,14.93
2018-01-27T03:20:02.263Z,12.13
2018-01-27T03:22:34.728Z,12.77
2018-01-27T03:25:08.088Z,12.87
2018-01-27T03:27:41.398Z,12.17
2018-01-27T03:30:14.775Z,15.00
2018-01-27T03:32:47.911Z,11.63
2018-01-27T03:35:20.736Z,12.40
2018-01-27T03:37:54.019Z,10.83
2018-01-27T03:40:26.461Z,12.37
2018-01-27T03:42:58.861Z,13.20
2018-01-27T03:45:31.868Z,11.33
2018-01-27T03:48:05.137Z,13.70
2018-01-27T03:50:37.982Z,13.80
2018-01-27T03:53:11.141Z,16.67
2018-01-27T03:55:45.184Z,12.23
2018-01-27T03:58:17.819Z,12.03
2018-01-27T04:00:51.022Z,12.27
2018-01-27T04:03:23.580Z,13.57
2018-01-27T04:05:56.600Z,9.33
2018-01-27T04:08:29.428Z,14.10
2018-01-27T04:11:03.623Z,12.87
2018-01-27T04:13:36.276Z,14.90
2018-01-27T04:16:09.100Z,12.33
2018-01-27T04:18:42.256Z,11.00
2018-01-27T04:21:14.888Z,9.57
2018-01-27T04:23:48.239Z,12.00
2018-01-27T04:26:21.563Z,12.73
2018-01-27T04:28:54.744Z,13.53
2018-01-27T04:31:27.536Z,15.97
2018-01-27T04:34:00.630Z,10.30
2018-01-27T04:36:33.489Z,12.50
2018-01-27T04:39:07.429Z,11.10
2018-01-27T04:41:40.892Z,12.30
2018-01-27T04:44:13.456Z,12.90
2018-01-27T04:46:45.833Z,9.37
2018-01-27T04:49:18.280Z,11.70
2018-01-27T04:51:51.582Z,10.50
2018-01-27T04:54:24.589Z,16.27
2018-01-27T04:56:57.079Z,16.27
2018-01-27T04:59:30.387Z,12.40
2018-01-27T05:02:03.904Z,11.37
2018-01-27T05:04:36.774Z,11.63
2018-01-27T05:07:10.269Z,11.03
2018-01-27T05:09:43.292Z,11.77
2018-01-27T05:12:15.986Z,13.80
2018-01-27T05:14:49.838Z,14.33
2018-01-27T05:17:22.979Z,15.23
2018-01-27T05:19:55.487Z,12.27
2018-01-27T05:22:29.027Z,13.37
2018-01-27T05:25:01.996Z,8.10
2018-01-27T05:27:35.180Z,12.30
2018-01-27T05:30:07.584Z,13.07
2018-01-27T05:32:41.675Z,16.17
2018-01-27T05:35:14.164Z,11.37
2018-01-27T05:37:47.516Z,19.03
2018-01-27T05:40:19.924Z,8.80
2018-01-27T05:42:53.083Z,11.43
2018-01-27T05:45:25.559Z,12.97
2018-01-27T05:47:59.008Z,7.53
2018-01-27T05:50:32.236Z,11.57
2018-01-27T05:53:05.669Z,14.47
2018-01-27T05:55:38.990Z,11.67
2018-01-27T05:58:11.399Z,11.53
2018-01-27T06:00:45.418Z,12.20
2018-01-27T06:03:18.132Z,16.70
2018-01-27T06:05:50.998Z,12.67
2018-01-27T06:08:24.341Z,14.90
2018-01-27T06:10:56.731Z,12.40
2018-01-27T06:13:29.399Z,11.33
2018-01-27T06:16:02.085Z,13.17
2018-01-27T06:18:35.735Z,11.80
2018-01-27T06:21:08.936Z,16.10
2018-01-27T06:23:43.049Z,14.13
2018-01-27T06:26:15.482Z,11.83
2018-01-27T06:28:49.481Z,14.00
2018-01-27T06:31:22.624Z,15.60
2018-01-27T06:33:55.727Z,13.53
2018-01-27T06:36:29.005Z,16.40
2018-01-27T06:39:01.777Z,15.17
2018-01-27T06:41:34.157Z,12.80
2018-01-27T06:44:07.305Z,13.83
2018-01-27T06:46:39.965Z,25.33
2018-01-27T06:49:12.576Z,21.57
2018-01-27T06:51:44.961Z,29.67
2018-01-27T06:54:19.090Z,28.30
2018-01-27T06:56:51.679Z,33.10
2018-01-27T06:59:24.119Z,27.67
2018-01-27T07:01:57.480Z,37.30
2018-01-27T07:04:30.804Z,30.77
2018-01-27T07:07:04.082Z,30.00
2018-01-27T07:09:36.474Z,34.93
2018-01-27T07:12:08.864Z,38.43
2018-01-27T07:14:41.272Z,35.83
2018-01-27T07:17:13.842Z,35.50
2018-01-27T07:19:47.469Z,27.17
2018-01-27T07:22:20.340Z,30.83
2018-01-27T07:24:53.352Z,35.63
2018-01-27T07:27:26.900Z,39.33
2018-01-27T07:29:59.932Z,30.37
2018-01-27T07:32:32.627Z,29.03
2018-01-27T07:35:06.428Z,45.07
2018-01-27T07:37:39.314Z,45.50
2018-01-27T07:40:12.147Z,45.33
2018-01-27T07:42:51.663Z,59.40
2018-01-27T07:45:24.699Z,60.83
2018-01-27T07:47:58.622Z,60.53
2018-01-27T07:50:31.402Z,57.03
2018-01-27T07:53:04.748Z,41.17
2018-01-27T07:55:38.042Z,53.63
2018-01-27T07:58:10.358Z,56.43
2018-01-27T08:00:42.795Z,44.47
2018-01-27T08:03:17.044Z,68.97
2018-01-27T08:05:49.516Z,57.90
2018-01-27T08:08:21.981Z,70.77
2018-01-27T08:10:55.353Z,81.77
2018-01-27T08:13:28.665Z,61.80
2018-01-27T08:16:02.038Z,79.43
2018-01-27T08:18:36.149Z,83.83
2018-01-27T08:21:08.852Z,91.77
2018-01-27T08:23:42.155Z,75.60
2018-01-27T08:26:14.556Z,93.13
2018-01-27T08:28:47.038Z,87.37
2018-01-27T08:31:19.680Z,69.07
2018-01-27T08:33:52.427Z,77.13
2018-01-27T08:36:25.076Z,72.27
2018-01-27T08:38:57.988Z,77.37
2018-01-27T08:41:31.224Z,72.33
2018-01-27T08:44:04.019Z,56.53
2018-01-27T08:46:36.631Z,80.67
2018-01-27T08:49:09.460Z,95.30
2018-01-27T08:51:43.275Z,97.90
2018-01-27T08:54:17.009Z,61.27
2018-01-27T08:56:50.116Z,74.37
2018-01-27T08:59:22.910Z,89.27
2018-01-27T09:01:55.744Z,93.10
2018-01-27T09:04:28.956Z,88.37
2018-01-27T09:07:01.385Z,90.03
2018-01-27T09:09:34.009Z,66.10
2018-01-27T09:12:07.309Z,97.47
2018-01-27T09:14:39.787Z,74.73
2018-01-27T09:17:12.461Z,51.50
2018-01-27T09:19:45.600Z,103.43
2018-01-27T09:22:19.037Z,95.17
2018-01-27T09:24:52.174Z,99.93
2018-01-27T09:27:24.857Z,71.13
2018-01-27T09:29:57.253Z,92.17
2018-01-27T09:32:36.807Z,112.17
2018-01-27T09:35:10.107Z,103.63
2018-01-27T09:37:42.703Z,104.67
2018-01-27T09:40:15.337Z,73.77
2018-01-27T09:42:48.315Z,98.23
2018-01-27T09:45:21.681Z,66.50
2018-01-27T09:47:54.458Z,104.20
2018-01-27T09:50:27.896Z,116.47
2018-01-27T09:53:00.906Z,105.70
2018-01-27T09:55:33.649Z,116.47
2018-01-27T09:58:06.384Z,93.70
2018-01-27T10:00:39.110Z,87.90
2018-01-27T10:03:11.679Z,95.43
2018-01-27T10:05:44.278Z,115.70
2018-01-27T10:08:17.102Z,81.50
2018-01-27T10:10:50.129Z,80.50
2018-01-27T10:13:23.098Z,69.27
2018-01-27T10:15:57.120Z,73.07
2018-01-27T10:18:30.007Z,78.03
2018-01-27T10:21:03.308Z,73.20
2018-01-27T10:23:36.638Z,78.60
2018-01-27T10:26:09.832Z,73.33
2018-01-27T10:28:42.657Z,82.93
2018-01-27T10:31:15.837Z,91.93
2018-01-27T10:33:48.970Z,75.90
2018-01-27T10:36:21.529Z,78.37
2018-01-27T10:38:54.162Z,68.07
2018-01-27T10:41:27.240Z,79.77
2018-01-27T10:43:59.858Z,87.83
2018-01-27T10:46:32.384Z,100.97
2018-01-27T10:49:04.913Z,101.63
2018-01-27T10:51:38.033Z,66.20
2018-01-27T10:54:10.670Z,78.70
2018-01-27T10:56:43.305Z,74.47
2018-01-27T10:59:16.957Z,93.40
2018-01-27T11:01:49.924Z,112.43
2018-01-27T11:04:23.384Z,118.93
2018-01-27T11:06:57.211Z,94.00
2018-01-27T11:09:30.000Z,89.60
2018-01-27T11:12:02.798Z,85.20
2018-01-27T11:14:36.091Z,98.50
2018-01-27T11:17:08.898Z,70.27
2018-01-27T11:19:41.980Z,100.87
2018-01-27T11:22:17.352Z,95.80
2018-01-27T11:24:50.276Z,98.47
2018-01-27T11:27:23.608Z,86.80
2018-01-27T11:29:56.093Z,68.40
2018-01-27T11:32:29.381Z,85.37
2018-01-27T11:35:01.884Z,65.70
2018-01-27T11:37:34.992Z,89.90
2018-01-27T11:40:07.826Z,78.47
2018-01-27T11:42:41.094Z,76.30
2018-01-27T11:45:14.455Z,85.30
2018-01-27T11:47:48.471Z,84.90
2018-01-27T11:50:21.133Z,66.57
2018-01-27T11:52:54.457Z,59.70
2018-01-27T11:55:27.766Z,69.80
2018-01-27T11:58:01.077Z,58.10
2018-01-27T12:00:35.147Z,56.80
2018-01-27T12:03:07.966Z,69.93
2018-01-27T12:05:41.100Z,66.93
2018-01-27T12:08:13.743Z,87.20
2018-01-27T12:10:46.599Z,94.10
2018-01-27T12:13:19.168Z,89.00
2018-01-27T12:15:52.072Z,79.10
2018-01-27T12:18:26.030Z,74.33
2018-01-27T12:20:59.046Z,73.87
2018-01-27T12:23:32.216Z,112.40
2018-01-27T12:26:04.741Z,97.87
2018-01-27T12:28:37.748Z,68.57
2018-01-27T12:31:10.634Z,63.33
2018-01-27T12:33:43.158Z,53.60
2018-01-27T12:36:15.876Z,53.60
2018-01-27T12:38:48.542Z,70.47
2018-01-27T12:41:21.852Z,52.00
2018-01-27T12:43:55.075Z,54.53
2018-01-27T12:46:27.561Z,49.00
2018-01-27T12:48:59.902Z,45.33
2018-01-27T12:51:33.264Z,70.93
2018-01-27T12:54:06.584Z,60.80
2018-01-27T12:56:39.773Z,52.80
2018-01-27T12:59:13.049Z,54.13
2018-01-27T13:01:45.708Z,47.90
2018-01-27T13:04:19.031Z,52.03
2018-01-27T13:06:52.328Z,46.23
2018-01-27T13:09:25.601Z,33.93
2018-01-27T13:11:57.972Z,39.80
2018-01-27T13:14:30.694Z,36.97
2018-01-27T13:17:03.976Z,35.60
2018-01-27T13:19:37.161Z,34.23
2018-01-27T13:22:09.887Z,32.30
2018-01-27T13:24:42.290Z,25.97
2018-01-27T13:27:14.726Z,37.23
2018-01-27T13:29:47.959Z,31.00
2018-01-27T13:32:21.884Z,32.93
2018-01-27T13:34:55.119Z,44.97
2018-01-27T13:37:28.067Z,37.70
2018-01-27T13:40:01.291Z,34.17
2018-01-27T13:42:34.213Z,34.70
2018-01-27T13:45:06.947Z,33.57
2018-01-27T13:47:39.472Z,43.23
2018-01-27T13:50:11.856Z,43.50
2018-01-27T13:52:44.366Z,39.37
2018-01-27T13:55:17.603Z,52.23
2018-01-27T13:57:50.401Z,51.70
2018-01-27T14:00:23.680Z,49.20
2018-01-27T14:02:56.119Z,43.60
2018-01-27T14:05:28.542Z,61.33
2018-01-27T14:08:01.013Z,49.37
2018-01-27T14:10:34.303Z,48.00
2018-01-27T14:13:07.767Z,48.57
2018-01-27T14:15:40.978Z,55.10
2018-01-27T14:18:13.453Z,53.57
2018-01-27T14:20:45.835Z,57.97
2018-01-27T14:23:18.302Z,48.00
2018-01-27T14:25:51.063Z,47.47
2018-01-27T14:28:24.040Z,54.00
2018-01-27T14:30:56.567Z,36.07
2018-01-27T14:33:28.945Z,33.83
2018-01-27T14:36:01.902Z,44.73
2018-01-27T14:38:35.472Z,42.67
2018-01-27T14:41:07.888Z,43.83
2018-01-27T14:43:40.564Z,33.50
2018-01-27T14:46:20.874Z,39.03
2018-01-27T14:48:53.420Z,31.67
2018-01-27T14:51:26.171Z,27.77
2018-01-27T14:53:58.860Z,45.40
2018-01-27T14:56:32.426Z,29.87
2018-01-27T14:59:06.175Z,33.10
2018-01-27T15:01:38.883Z,27.80
2018-01-27T15:04:12.413Z,32.50
2018-01-27T15:06:45.516Z,40.53
2018-01-27T15:09:17.955Z,44.33
2018-01-27T15:11:51.967Z,30.70
2018-01-27T15:14:24.657Z,31.77
2018-01-27T15:16:57.920Z,38.13
2018-01-27T15:19:30.467Z,31.57
2018-01-27T15:22:03.721Z,25.23
2018-01-27T15:24:37.130Z,37.17
2018-01-27T15:27:11.192Z,34.10
2018-01-27T15:29:43.863Z,38.90
2018-01-27T15:32:16.971Z,37.80
2018-01-27T15:34:49.660Z,38.27
2018-01-27T15:37:22.037Z,36.30
2018-01-27T15:39:55.781Z,28.20
2018-01-27T15:42:28.354Z,36.33
2018-01-27T15:45:00.874Z,24.40
2018-01-27T15:47:33.447Z,37.27
2018-01-27T15:50:06.404Z,30.10
2018-01-27T15:52:38.944Z,36.67
2018-01-27T15:55:11.524Z,41.20
2018-01-27T15:57:45.580Z,34.90
2018-01-27T16:00:19.178Z,44.50
2018-01-27T16:02:52.175Z,33.47
2018-01-27T16:05:25.353Z,41.50
2018-01-27T16:07:57.858Z,41.87
2018-01-27T16:10:30.380Z,36.73
2018-01-27T16:13:03.221Z,37.70
2018-01-27T16:15:36.573Z,39.57
2018-01-27T16:18:10.906Z,38.93
2018-01-27T16:20:44.241Z,43.10
2018-01-27T16:23:17.608Z,35.07
2018-01-27T16:25:50.773Z,46.93
2018-01-27T16:28:23.513Z,47.50
2018-01-27T16:30:56.032Z,47.23
2018-01-27T16:33:29.336Z,50.90
2018-01-27T16:36:03.455Z,46.30
2018-01-27T16:38:36.008Z,48.40
2018-01-27T16:41:09.427Z,58.50
2018-01-27T16:43:43.419Z,50.20
2018-01-27T16:46:16.343Z,54.03
2018-01-27T16:48:48.844Z,58.67
2018-01-27T16:51:22.169Z,61.47
2018-01-27T16:53:55.647Z,53.37
2018-01-27T16:56:28.770Z,59.47
2018-01-27T16:59:01.531Z,59.33
2018-01-27T17:01:34.496Z,52.37
2018-01-27T17:04:07.229Z,56.87
2018-01-27T17:06:39.762Z,59.27
2018-01-27T17:09:13.029Z,67.47
2018-01-27T17:11:46.678Z,61.73
2018-01-27T17:14:19.706Z,50.60
2018-01-27T17:16:52.446Z,58.50
2018-01-27T17:19:25.240Z,61.60
2018-01-27T17:21:58.121Z,51.60
2018-01-27T17:24:30.696Z,44.70
2018-01-27T17:27:03.916Z,46.90
2018-01-27T17:29:37.196Z,55.90
2018-01-27T17:32:09.888Z,43.13
2018-01-27T17:34:43.224Z,52.53
2018-01-27T17:37:16.664Z,61.67
2018-01-27T17:39:49.906Z,42.20
2018-01-27T17:42:22.376Z,58.00
2018-01-27T17:44:55.616Z,58.23
2018-01-27T17:47:29.776Z,50.90
2018-01-27T17:50:02.394Z,54.20
2018-01-27T17:52:36.460Z,73.87
2018-01-27T17:55:09.108Z,52.97
2018-01-27T17:57:41.798Z,71.37
2018-01-27T18:00:15.074Z,57.70
2018-01-27T18:02:47.672Z,68.63
2018-01-27T18:05:20.054Z,68.57
2018-01-27T18:07:52.744Z,55.10
2018-01-27T18:10:25.343Z,63.70
2018-01-27T18:12:58.220Z,47.97
2018-01-27T18:15:30.968Z,71.63
2018-01-27T18:18:05.022Z,66.23
2018-01-27T18:20:38.061Z,55.93
2018-01-27T18:23:10.901Z,55.40
2018-01-27T18:25:43.582Z,73.67
2018-01-27T18:28:16.469Z,70.93
2018-01-27T18:30:49.770Z,55.77
2018-01-27T18:33:22.159Z,61.87
2018-01-27T18:35:55.452Z,56.80
2018-01-27T18:38:28.782Z,53.57
2018-01-27T18:41:01.144Z,76.00
2018-01-27T18:43:33.633Z,74.87
2018-01-27T18:46:07.001Z,68.47
2018-01-27T18:48:39.398Z,76.33
2018-01-27T18:51:11.788Z,67.73
2018-01-27T18:53:44.358Z,76.10
2018-01-27T18:56:17.654Z,64.13
2018-01-27T18:58:50.141Z,57.77
2018-01-27T19:01:23.477Z,70.60
2018-01-27T19:03:55.874Z,68.80
2018-01-27T19:06:29.167Z,60.73
2018-01-27T19:09:02.629Z,55.57
2018-01-27T19:11:36.171Z,56.10
2018-01-27T19:14:09.254Z,72.60
2018-01-27T19:16:42.132Z,55.77
2018-01-27T19:19:15.148Z,54.37
2018-01-27T19:21:47.852Z,41.83
2018-01-27T19:24:21.659Z,43.73
2018-01-27T19:26:54.878Z,47.30
2018-01-27T19:29:27.615Z,59.00
2018-01-27T19:32:00.602Z,56.83
2018-01-27T19:34:33.240Z,50.20
2018-01-27T19:37:05.861Z,49.77
2018-01-27T19:39:38.674Z,50.20
2018-01-27T19:42:11.289Z,46.03
2018-01-27T19:44:44.076Z,58.40
2018-01-27T19:47:16.499Z,54.00
2018-01-27T19:49:50.682Z,49.43
2018-01-27T19:52:23.364Z,43.10
2018-01-27T19:54:57.074Z,38.40
2018-01-27T19:57:30.613Z,51.90
2018-01-27T20:02:42.966Z,49.33
2018-01-27T20:05:16.242Z,42.60
2018-01-27T20:07:52.261Z,36.80
2018-01-27T20:10:25.947Z,39.40
2018-01-27T20:12:59.755Z,38.00
2018-01-27T20:15:34.143Z,32.17
2018-01-27T20:18:08.943Z,38.87
2018-01-27T20:20:42.554Z,35.60
2018-01-27T20:23:17.678Z,43.67
2018-01-27T20:25:51.756Z,44.50
2018-01-27T20:28:25.816Z,40.17
2018-01-27T20:31:00.644Z,45.23
2018-01-27T20:33:35.540Z,33.67
2018-01-27T20:36:10.045Z,46.23
2018-01-27T20:38:43.918Z,32.83
2018-01-27T20:41:18.210Z,35.37
2018-01-27T20:43:51.561Z,35.47
2018-01-27T20:46:25.744Z,32.60
2018-01-27T20:48:59.490Z,39.30
2018-01-27T20:51:33.918Z,33.17
2018-01-27T20:54:07.700Z,31.77
2018-01-27T20:56:42.181Z,39.80
2018-01-27T20:59:16.490Z,39.93
2018-01-27T21:01:51.041Z,36.40
2018-01-27T21:04:24.808Z,42.73
2018-01-27T21:06:58.077Z,35.33
2018-01-27T21:09:32.303Z,41.43
2018-01-27T21:12:05.528Z,32.40
2018-01-27T21:14:39.070Z,40.50
2018-01-27T21:17:11.802Z,29.40
2018-01-27T21:19:45.704Z,36.23
2018-01-27T21:22:18.962Z,35.00
2018-01-27T21:24:51.979Z,38.63
2018-01-27T21:27:24.393Z,32.43
2018-01-27T21:29:58.005Z,29.43
2018-01-27T21:32:31.229Z,37.40
2018-01-27T21:35:04.584Z,28.80
2018-01-27T21:37:37.173Z,33.87
2018-01-27T21:40:09.734Z,32.33
2018-01-27T21:42:43.305Z,25.20
2018-01-27T21:45:15.826Z,27.33
2018-01-27T21:47:48.570Z,31.40
2018-01-27T21:50:21.846Z,25.67
2018-01-27T21:52:54.595Z,29.70
2018-01-27T21:55:27.095Z,33.07
2018-01-27T21:57:59.860Z,30.23
2018-01-27T22:00:32.465Z,29.20
2018-01-27T22:03:04.987Z,26.93
2018-01-27T22:05:38.123Z,24.87
2018-01-27T22:08:11.325Z,29.97
2018-01-27T22:10:44.212Z,30.57
2018-01-27T22:13:16.798Z,31.40
2018-01-27T22:15:50.746Z,26.70
2018-01-27T22:18:23.412Z,34.23
2018-01-27T22:20:56.725Z,25.73
2018-01-27T22:23:29.169Z,32.97
2018-01-27T22:26:01.547Z,35.87
2018-01-27T22:28:35.716Z,31.53
2018-01-27T22:31:08.169Z,31.80
2018-01-27T22:33:41.472Z,29.70
2018-01-27T22:36:14.027Z,38.80
2018-01-27T22:38:46.490Z,33.80
2018-01-27T22:41:19.759Z,32.57
2018-01-27T22:43:52.235Z,34.67
2018-01-27T22:46:25.574Z,32.43
2018-01-27T22:48:58.430Z,31.60
2018-01-27T22:51:32.148Z,37.40
2018-01-27T22:54:05.918Z,30.50
2018-01-27T22:56:38.485Z,35.23
2018-01-27T22:59:12.144Z,27.17
2018-01-27T23:01:44.819Z,28.87
2018-01-27T23:04:18.024Z,38.50
2018-01-27T23:06:51.095Z,23.57
2018-01-27T23:09:24.327Z,32.63
2018-01-27T23:11:57.074Z,36.33
2018-01-27T23:14:30.380Z,33.40
2018-01-27T23:17:03.344Z,41.50
2018-01-27T23:19:36.660Z,33.37
2018-01-27T23:22:10.190Z,36.10
2018-01-27T23:24:43.754Z,36.97
2018-01-27T23:27:16.294Z,35.93
2018-01-27T23:29:48.722Z,43.00
2018-01-27T23:32:22.772Z,38.77
2018-01-27T23:34:55.480Z,36.77
2018-01-27T23:37:28.775Z,42.17
2018-01-27T23:40:02.146Z,35.53
2018-01-27T23:42:35.439Z,44.50
2018-01-27T23:45:08.769Z,39.10
2018-01-27T23:47:42.021Z,38.07
2018-01-27T23:50:15.463Z,38.77
2018-01-27T23:52:48.639Z,41.20
2018-01-27T23:55:21.109Z,38.70
2018-01-27T23:57:54.530Z,37.10
